Terminal Aerodrome Forecast
Issued by NWS Atlanta, GA

Home | Current Version | Previous Version | Text Only | Print | Product List | Glossary On
Versions: 1 2 3 4 5 6 7 8 9 10 11 12 13 14 15 16 17 18 19 20 21 22 23 24 25 26 27 28 29 30
000
FTUS42 KFFC 031738
TAFCSG
TAF
KCSG 031738Z 0318/0418 29012G18KT P6SM SCT050
     FM032100 27012G18KT P6SM VCTS SCT060CB BKN100
      TEMPO 0323/0401 VRB15G30KT 2SM TSRA BR BKN030CB
     FM040100 27008KT P6SM -SHRA SCT025 BKN040
     FM040600 VRB03KT P6SM SCT060 BKN100
     FM041000 VRB03KT P6SM VCSH SCT030 BKN050
     FM041500 27010KT P6SM BKN080=

USA.gov is the U.S. government's official web portal to all federal, state and local government web resources and services.